Flight Track Log - Related Links

Times and Time Zones

All times are in EDT time to prevent confusion due to time zone crossing. See the CMP204 flight status page for this flight to view local times or setup timezone preferences in your user account.


Time Position Orientation Groundspeed Altitude Reporting Facility
EDT Latitude Longitude Course Direction KTS MPH feet Rate Location/Type
Fri 01:38:52 AM -15.8610 -47.8740 87° East 145 167 5,000  Level FlightAware ADS-B
Fri 01:39:17 AM -15.8600 -47.8550 87° East 187 215 5,800 1,650 Climbing FlightAware ADS-B
Fri 01:40:12 AM -15.8350 -47.8130 58° Northeast 195 224 7,200 1,440 Climbing FlightAware ADS-B
Fri 01:40:32 AM -15.8120 -47.8210 341° North 256 295 7,600 533 Climbing FlightAware ADS-B
Fri 01:40:57 AM -15.7860 -47.8300 342° North 256 295 7,600 1,286 Level FlightAware ADS-B
Fri 01:41:42 AM -15.7740 -47.9100 279° West 293 337 9,100 1,385 Climbing FlightAware ADS-B
Fri 01:42:02 AM -15.7670 -47.9320 288° West 293 337 9,100 2,743 Level FlightAware ADS-B
Fri 01:42:52 AM -15.7030 -48.0000 314° West 361 415 12,300 2,965 Climbing FlightAware ADS-B
Fri 01:43:27 AM -15.6750 -48.0460 302° West 375 432 13,300 2,000 Climbing FlightAware ADS-B
Fri 01:44:07 AM -15.6370 -48.1090 302° West 382 440 14,800 2,200 Climbing FlightAware ADS-B
Fri 01:44:57 AM -15.5820 -48.1930 304° West 395 455 16,600 2,047 Climbing FlightAware ADS-B
Fri 01:45:32 AM -15.5450 -48.2460 306° West 401 461 17,700 1,906 Climbing FlightAware ADS-B
Fri 01:46:22 AM -15.4880 -48.3280 306° West 411 473 19,300 1,733 Climbing FlightAware ADS-B
Fri 01:47:02 AM -15.4480 -48.3880 305° West 417 480 20,300 1,694 Climbing FlightAware ADS-B
Fri 01:47:47 AM -15.3940 -48.4670 305° West 426 490 21,700 1,680 Climbing FlightAware ADS-B
Fri 01:48:42 AM -15.3340 -48.5540 306° West 431 496 23,100 1,488 Climbing FlightAware ADS-B
Fri 01:49:52 AM -15.2540 -48.6720 305° West 443 510 24,800 1,473 Climbing FlightAware ADS-B
Fri 01:50:32 AM -15.2030 -48.7460 306° West 449 517 25,800 1,425 Climbing FlightAware ADS-B
Fri 01:51:12 AM -15.1520 -48.8200 306° West 451 519 26,700 1,252 Climbing FlightAware ADS-B
Fri 01:52:27 AM -15.0580 -48.9580 305° West 468 539 28,200 818 Climbing FlightAware ADS-B
Fri 01:53:02 AM -15.0210 -49.0140 304° West 468 539 28,200  Level FlightAware ADS-B
Fri 01:53:42 AM -14.9790 -49.0780 304° West 468 539 28,200  Level FlightAware ADS-B
Fri 01:54:32 AM -14.9280 -49.1570 304° West 468 539 28,200  Level FlightAware ADS-B
Fri 01:55:12 AM -14.8870 -49.2200 304° West 468 539 28,200  Level FlightAware ADS-B
Fri 01:55:52 AM -14.8460 -49.2830 304° West 468 539 28,200 -85 Level FlightAware ADS-B
Fri 01:58:00 AM -14.6987 -49.4859 307° West  Level Estimated
Fri 01:59:00 AM -14.6297 -49.5810 307° West  Level Estimated
Fri 02:00:00 AM -14.5605 -49.6759 307° West  Level Estimated
Fri 02:01:00 AM -14.4914 -49.7708 307° West  Level Estimated
Fri 02:02:00 AM -14.4222 -49.8657 307° West  Level Estimated
Fri 02:03:00 AM -14.3530 -49.9605 307° West  Level Estimated
Fri 02:04:00 AM -14.2837 -50.0552 307° West  Level Estimated
Fri 02:05:00 AM -14.2144 -50.1499 307° West  Level Estimated
Fri 02:06:00 AM -14.1450 -50.2445 307° West  Level Estimated
Fri 02:07:00 AM -14.0756 -50.3390 307° West  Level Estimated
Fri 02:08:00 AM -14.0062 -50.4335 307° West  Level Estimated
Fri 02:09:00 AM -13.9368 -50.5280 307° West  Level Estimated
Fri 02:10:00 AM -13.8673 -50.6224 307° West  Level Estimated
Fri 02:11:00 AM -13.7977 -50.7167 307° West  Level Estimated
Fri 02:12:00 AM -13.7282 -50.8110 307° West  Level Estimated
Fri 02:13:00 AM -13.6586 -50.9052 307° West  Level Estimated
Fri 02:14:00 AM -13.5889 -50.9993 307° West  Level Estimated
Fri 02:15:00 AM -13.5192 -51.0934 307° West  Level Estimated
Fri 02:16:00 AM -13.4495 -51.1875 307° West  Level Estimated
Fri 02:17:00 AM -13.3798 -51.2815 307° West  Level Estimated
Fri 02:18:00 AM -13.3100 -51.3754 307° West  Level Estimated
Fri 02:19:00 AM -13.2402 -51.4693 307° West  Level Estimated
Fri 02:20:00 AM -13.1704 -51.5632 307° West  Level Estimated
Fri 02:21:00 AM -13.1005 -51.6569 307° West  Level Estimated
Fri 02:22:00 AM -13.0306 -51.7507 307° West  Level Estimated
Fri 02:23:00 AM -12.9606 -51.8443 307° West  Level Estimated
Fri 02:24:00 AM -12.8906 -51.9380 307° West  Level Estimated
Fri 02:25:00 AM -12.8206 -52.0315 307° West  Level Estimated
Fri 02:26:00 AM -12.7506 -52.1250 308° West  Level Estimated
Fri 02:27:00 AM -12.6805 -52.2185 308° West  Level Estimated
Fri 02:28:00 AM -12.6104 -52.3119 308° West  Level Estimated
Fri 02:29:00 AM -12.5402 -52.4053 308° West  Level Estimated
Fri 02:30:00 AM -12.4700 -52.4986 308° West  Level Estimated
Fri 02:31:00 AM -12.3998 -52.5919 308° West  Level Estimated
Fri 02:32:00 AM -12.3296 -52.6851 308° West  Level Estimated
Fri 02:33:00 AM -12.2593 -52.7782 308° West  Level Estimated
Fri 02:34:00 AM -12.1890 -52.8713 308° West  Level Estimated
Fri 02:35:00 AM -12.1187 -52.9644 308° West  Level Estimated
Fri 02:36:00 AM -12.0483 -53.0574 308° West  Level Estimated
Fri 02:37:00 AM -11.9779 -53.1504 308° West  Level Estimated
Fri 02:38:00 AM -11.9075 -53.2433 308° West  Level Estimated
Fri 02:39:00 AM -11.8370 -53.3362 308° West  Level Estimated
Fri 02:40:00 AM -11.7665 -53.4290 308° West  Level Estimated
Fri 02:41:00 AM -11.6960 -53.5217 308° West  Level Estimated
Fri 02:42:00 AM -11.6255 -53.6145 308° West  Level Estimated
Fri 02:43:00 AM -11.5549 -53.7071 308° West  Level Estimated
Fri 02:44:00 AM -11.4843 -53.7998 308° West  Level Estimated
Fri 02:45:00 AM -11.4136 -53.8923 308° West  Level Estimated
Fri 02:46:00 AM -11.3429 -53.9849 308° West  Level Estimated
Fri 02:47:00 AM -11.2723 -54.0774 308° West  Level Estimated
Fri 02:48:00 AM -11.2015 -54.1698 308° West  Level Estimated
Fri 02:49:00 AM -11.1308 -54.2622 308° West  Level Estimated
Fri 02:50:00 AM -11.0600 -54.3546 308° West  Level Estimated
Fri 02:51:00 AM -10.9892 -54.4469 308° West  Level Estimated
Fri 02:52:00 AM -10.9184 -54.5392 308° West  Level Estimated
Fri 02:53:00 AM -10.8475 -54.6314 308° West  Level Estimated
Fri 02:54:00 AM -10.7766 -54.7236 308° West  Level Estimated
Fri 02:55:00 AM -10.7057 -54.8157 308° West  Level Estimated
Fri 02:56:00 AM -10.6347 -54.9078 308° West  Level Estimated
Fri 02:57:00 AM -10.5638 -54.9999 308° West  Level Estimated
Fri 02:58:00 AM -10.4928 -55.0919 308° West  Level Estimated
Fri 02:59:00 AM -10.4217 -55.1838 308° West  Level Estimated
Fri 03:00:00 AM -10.3507 -55.2757 308° West  Level Estimated
Fri 03:01:00 AM -10.2796 -55.3676 308° West  Level Estimated
Fri 03:02:00 AM -10.2085 -55.4595 308° West  Level Estimated
Fri 03:03:00 AM -10.1374 -55.5513 308° West  Level Estimated
Fri 03:04:00 AM -10.0662 -55.6430 308° West  Level Estimated
Fri 03:05:00 AM -9.9950 -55.7347 308° West  Level Estimated
Fri 03:06:00 AM -9.9238 -55.8264 308° West  Level Estimated
Fri 03:07:00 AM -9.8526 -55.9181 308° West  Level Estimated
Fri 03:08:00 AM -9.7814 -56.0097 308° West  Level Estimated
Fri 03:09:00 AM -9.7101 -56.1012 308° West  Level Estimated
Fri 03:10:00 AM -9.6388 -56.1927 308° West  Level Estimated
Fri 03:11:00 AM -9.5674 -56.2842 308° West  Level Estimated
Fri 03:12:00 AM -9.4961 -56.3757 308° West  Level Estimated
Fri 03:13:00 AM -9.4247 -56.4671 308° West  Level Estimated
Fri 03:14:00 AM -9.3533 -56.5584 308° West  Level Estimated
Fri 03:15:00 AM -9.2819 -56.6498 308° West  Level Estimated
Fri 03:16:00 AM -9.2104 -56.7411 308° West  Level Estimated
Fri 03:17:00 AM -9.1390 -56.8323 308° West  Level Estimated
Fri 03:18:00 AM -9.0706 -56.9195 308° West  Level Estimated
Fri 03:19:00 AM -9.0023 -57.0067 308° West  Level Estimated
Fri 03:20:00 AM -8.9339 -57.0938 308° West  Level Estimated
Fri 03:21:00 AM -8.8655 -57.1809 308° West  Level Estimated
Fri 03:22:00 AM -8.7971 -57.2680 308° West  Level Estimated
Fri 03:23:00 AM -8.7286 -57.3550 309° West  Level Estimated
Fri 03:24:00 AM -8.6602 -57.4420 309° West  Level Estimated
Fri 03:25:00 AM -8.5917 -57.5290 309° West  Level Estimated
Fri 03:26:00 AM -8.5232 -57.6160 309° West  Level Estimated
Fri 03:27:00 AM -8.4547 -57.7029 309° West  Level Estimated
Fri 03:28:00 AM -8.3861 -57.7897 309° West  Level Estimated
Fri 03:29:00 AM -8.3176 -57.8766 309° West  Level Estimated
Fri 03:30:00 AM -8.2490 -57.9634 309° West  Level Estimated
Fri 03:31:00 AM -8.1804 -58.0502 309° West  Level Estimated
Fri 03:32:00 AM -8.1118 -58.1370 309° West  Level Estimated
Fri 03:33:00 AM -8.0431 -58.2237 309° West  Level Estimated
Fri 03:34:00 AM -7.9745 -58.3104 309° West  Level Estimated
Fri 03:35:00 AM -7.9058 -58.3971 309° West  Level Estimated
Fri 03:36:00 AM -7.8371 -58.4837 309° West  Level Estimated
Fri 03:37:00 AM -7.7684 -58.5703 309° West  Level Estimated
Fri 03:38:00 AM -7.6997 -58.6569 309° West  Level Estimated
Fri 03:39:00 AM -7.6310 -58.7435 309° West  Level Estimated
Fri 03:40:00 AM -7.5622 -58.8300 309° West  Level Estimated
Fri 03:41:00 AM -7.4935 -58.9165 309° West  Level Estimated
Fri 03:42:00 AM -7.4247 -59.0029 309° West  Level Estimated
Fri 03:43:00 AM -7.3559 -59.0894 309° West  Level Estimated
Fri 03:44:00 AM -7.2870 -59.1758 309° West  Level Estimated
Fri 03:45:00 AM -7.2182 -59.2622 309° West  Level Estimated
Fri 03:46:00 AM -7.1493 -59.3486 309° West  Level Estimated
Fri 03:47:00 AM -7.0805 -59.4349 309° West  Level Estimated
Fri 03:48:00 AM -7.0116 -59.5212 309° West  Level Estimated
Fri 03:49:00 AM -6.9427 -59.6075 309° West  Level Estimated
Fri 03:50:00 AM -6.8738 -59.6938 309° West  Level Estimated
Fri 03:51:00 AM -6.8048 -59.7800 309° West  Level Estimated
Fri 03:52:00 AM -6.7359 -59.8662 309° West  Level Estimated
Fri 03:53:00 AM -6.6669 -59.9524 309° West  Level Estimated
Fri 03:54:00 AM -6.5979 -60.0386 309° West  Level Estimated
Fri 03:55:00 AM -6.5289 -60.1247 309° West  Level Estimated
Fri 03:56:00 AM -6.4599 -60.2109 309° West  Level Estimated
Fri 03:57:00 AM -6.3909 -60.2970 309° West  Level Estimated
Fri 03:58:00 AM -6.3219 -60.3830 309° West  Level Estimated
Fri 03:59:00 AM -6.2528 -60.4691 309° West  Level Estimated
Fri 04:00:00 AM -6.1837 -60.5551 309° West  Level Estimated
Fri 04:01:00 AM -6.1147 -60.6411 309° West  Level Estimated
Fri 04:02:00 AM -6.0456 -60.7271 309° West  Level Estimated
Fri 04:03:00 AM -5.9765 -60.8130 309° West  Level Estimated
Fri 04:04:00 AM -5.9073 -60.8990 309° West  Level Estimated
Fri 04:05:00 AM -5.8382 -60.9849 309° West  Level Estimated
Fri 04:06:00 AM -5.7691 -61.0708 309° West  Level Estimated
Fri 04:07:00 AM -5.6999 -61.1567 309° West  Level Estimated
Fri 04:08:00 AM -5.6307 -61.2425 309° West  Level Estimated
Fri 04:09:00 AM -5.5615 -61.3283 309° West  Level Estimated
Fri 04:10:00 AM -5.4923 -61.4142 309° West  Level Estimated
Fri 04:11:00 AM -5.4231 -61.4999 309° West  Level Estimated
Fri 04:12:00 AM -5.3539 -61.5857 309° West  Level Estimated
Fri 04:13:00 AM -5.2847 -61.6715 309° West  Level Estimated
Fri 04:14:00 AM -5.2154 -61.7572 309° West  Level Estimated
Fri 04:15:00 AM -5.1462 -61.8429 309° West  Level Estimated
Fri 04:16:00 AM -5.0769 -61.9286 309° West  Level Estimated
Fri 04:17:00 AM -5.0076 -62.0143 309° West  Level Estimated
Fri 04:18:00 AM -4.9383 -62.0999 309° West  Level Estimated
Fri 04:19:00 AM -4.8690 -62.1856 309° West  Level Estimated
Fri 04:20:00 AM -4.7997 -62.2712 309° West  Level Estimated
Fri 04:21:00 AM -4.7304 -62.3568 309° West  Level Estimated
Fri 04:22:00 AM -4.6611 -62.4424 309° West  Level Estimated
Fri 04:23:00 AM -4.5917 -62.5280 309° West  Level Estimated
Fri 04:24:00 AM -4.5224 -62.6135 309° West  Level Estimated
Fri 04:25:00 AM -4.4530 -62.6991 309° West  Level Estimated
Fri 04:26:00 AM -4.3836 -62.7846 309° West  Level Estimated
Fri 04:27:00 AM -4.3143 -62.8701 309° West  Level Estimated
Fri 04:28:00 AM -4.2449 -62.9556 309° West  Level Estimated
Fri 04:29:00 AM -4.1755 -63.0411 309° West  Level Estimated
Fri 04:30:00 AM -4.1061 -63.1265 309° West  Level Estimated
Fri 04:31:00 AM -4.0367 -63.2120 309° West  Level Estimated
Fri 04:32:00 AM -3.9672 -63.2974 309° West  Level Estimated
Fri 04:33:00 AM -3.8978 -63.3828 309° West  Level Estimated
Fri 04:34:00 AM -3.8283 -63.4682 309° West  Level Estimated
Fri 04:35:00 AM -3.7589 -63.5536 309° West  Level Estimated
Fri 04:36:00 AM -3.6894 -63.6390 309° West  Level Estimated
Fri 04:37:00 AM -3.6199 -63.7244 309° West  Level Estimated
Fri 04:38:00 AM -3.5505 -63.8097 309° West  Level Estimated
Fri 04:39:00 AM -3.4810 -63.8951 309° West  Level Estimated
Fri 04:40:00 AM -3.4115 -63.9804 309° West  Level Estimated
Fri 04:41:00 AM -3.3420 -64.0657 309° West  Level Estimated
Fri 04:42:00 AM -3.2725 -64.1510 309° West  Level Estimated
Fri 04:43:00 AM -3.2029 -64.2363 309° West  Level Estimated
Fri 04:44:00 AM -3.1334 -64.3216 309° West  Level Estimated
Fri 04:45:00 AM -3.0639 -64.4068 309° West  Level Estimated
Fri 04:46:00 AM -2.9943 -64.4921 309° West  Level Estimated
Fri 04:47:00 AM -2.9248 -64.5773 309° West  Level Estimated
Fri 04:48:00 AM -2.8552 -64.6626 309° West  Level Estimated
Fri 04:49:00 AM -2.7857 -64.7478 309° West  Level Estimated
Fri 04:50:00 AM -2.7161 -64.8330 309° West  Level Estimated
Fri 04:51:00 AM -2.6465 -64.9182 309° West  Level Estimated
Fri 04:52:00 AM -2.5770 -65.0034 309° West  Level Estimated
Fri 04:53:00 AM -2.5074 -65.0885 309° West  Level Estimated
Fri 04:54:00 AM -2.4378 -65.1737 309° West  Level Estimated
Fri 04:55:00 AM -2.3682 -65.2589 309° West  Level Estimated
Fri 04:56:00 AM -2.2986 -65.3441 309° West  Level Estimated
Fri 04:57:00 AM -2.2290 -65.4292 309° West  Level Estimated
Fri 04:58:00 AM -2.1594 -65.5144 309° West  Level Estimated
Fri 04:59:00 AM -2.0898 -65.5995 309° West  Level Estimated
Fri 05:00:00 AM -2.0202 -65.6846 309° West  Level Estimated
Fri 05:01:00 AM -1.9505 -65.7697 309° West  Level Estimated
Fri 05:02:00 AM -1.8809 -65.8548 309° West  Level Estimated
Fri 05:03:00 AM -1.8113 -65.9399 309° West  Level Estimated
Fri 05:04:00 AM -1.7417 -66.0250 309° West  Level Estimated
Fri 05:05:00 AM -1.6720 -66.1101 309° West  Level Estimated
Fri 05:06:00 AM -1.6024 -66.1952 309° West  Level Estimated
Fri 05:07:00 AM -1.5327 -66.2803 309° West  Level Estimated
Fri 05:08:00 AM -1.4631 -66.3654 309° West  Level Estimated
Fri 05:09:00 AM -1.3934 -66.4504 309° West  Level Estimated
Fri 05:10:00 AM -1.3238 -66.5355 309° West  Level Estimated
Fri 05:11:00 AM -1.2541 -66.6206 309° West  Level Estimated
Fri 05:12:00 AM -1.1845 -66.7056 309° West  Level Estimated
Fri 05:13:00 AM -1.1148 -66.7907 309° West  Level Estimated
Fri 05:14:00 AM -1.0451 -66.8757 309° West  Level Estimated
Fri 05:15:00 AM -0.9754 -66.9607 309° West  Level Estimated
Fri 05:16:00 AM -0.9058 -67.0458 309° West  Level Estimated
Fri 05:17:00 AM -0.8361 -67.1308 309° West  Level Estimated
Fri 05:18:00 AM -0.7664 -67.2159 309° West  Level Estimated
Fri 05:19:00 AM -0.6968 -67.3009 309° West  Level Estimated
Fri 05:20:00 AM -0.6271 -67.3859 309° West  Level Estimated
Fri 05:21:00 AM -0.5574 -67.4709 309° West  Level Estimated
Fri 05:22:00 AM -0.4877 -67.5560 309° West  Level Estimated
Fri 05:23:00 AM -0.4180 -67.6410 309° West  Level Estimated
Fri 05:24:00 AM -0.3484 -67.7260 309° West  Level Estimated
Fri 05:25:00 AM -0.2787 -67.8110 309° West  Level Estimated
Fri 05:26:00 AM -0.2090 -67.8960 309° West  Level Estimated
Fri 05:27:00 AM -0.1393 -67.9811 309° West  Level Estimated
Fri 05:28:00 AM -0.0696 -68.0661 309° West  Level Estimated
Fri 05:29:00 AM 0.0000 -68.1511 309° West  Level Estimated
Fri 05:30:00 AM 0.0697 -68.2361 309° West  Level Estimated
Fri 05:31:00 AM 0.1394 -68.3212 309° West  Level Estimated
Fri 05:32:00 AM 0.2091 -68.4062 309° West  Level Estimated
Fri 05:33:00 AM 0.2788 -68.4912 309° West  Level Estimated
Fri 05:34:00 AM 0.3484 -68.5762 309° West  Level Estimated
Fri 05:35:00 AM 0.4181 -68.6612 309° West  Level Estimated
Fri 05:36:00 AM 0.4878 -68.7462 309° West  Level Estimated
Fri 05:37:00 AM 0.5575 -68.8313 309° West  Level Estimated
Fri 05:38:00 AM 0.6272 -68.9163 309° West  Level Estimated
Fri 05:39:00 AM 0.6968 -69.0013 309° West  Level Estimated
Fri 05:40:00 AM 0.7665 -69.0864 309° West  Level Estimated
Fri 05:41:00 AM 0.8362 -69.1714 309° West  Level Estimated
Fri 05:42:00 AM 0.9059 -69.2564 309° West  Level Estimated
Fri 05:43:00 AM 0.9755 -69.3415 309° West  Level Estimated
Fri 05:44:00 AM 1.0452 -69.4265 309° West  Level Estimated
Fri 05:45:00 AM 1.1149 -69.5116 309° West  Level Estimated
Fri 05:46:00 AM 1.1845 -69.5966 309° West  Level Estimated
Fri 05:47:00 AM 1.2542 -69.6817 309° West  Level Estimated
Fri 05:48:00 AM 1.3239 -69.7667 309° West  Level Estimated
Fri 05:49:00 AM 1.3935 -69.8518 309° West  Level Estimated
Fri 05:50:00 AM 1.4632 -69.9369 309° West  Level Estimated
Fri 05:51:00 AM 1.5328 -70.0219 309° West  Level Estimated
Fri 05:52:00 AM 1.6025 -70.1070 309° West  Level Estimated
Fri 05:53:00 AM 1.6721 -70.1921 309° West  Level Estimated
Fri 05:54:00 AM 1.7417 -70.2772 309° West  Level Estimated
Fri 05:55:00 AM 1.8114 -70.3623 309° West  Level Estimated
Fri 05:56:00 AM 1.8810 -70.4474 309° West  Level Estimated
Fri 05:57:00 AM 1.9506 -70.5325 309° West  Level Estimated
Fri 05:58:00 AM 2.0203 -70.6176 309° West  Level Estimated
Fri 05:59:00 AM 2.0899 -70.7027 309° West  Level Estimated
Fri 06:00:00 AM 2.1595 -70.7879 309° West  Level Estimated
Fri 06:01:00 AM 2.2291 -70.8730 309° West  Level Estimated
Fri 06:02:00 AM 2.2987 -70.9582 309° West  Level Estimated
Fri 06:03:00 AM 2.3683 -71.0433 309° West  Level Estimated
Fri 06:04:00 AM 2.4379 -71.1285 309° West  Level Estimated
Fri 06:05:00 AM 2.5075 -71.2137 309° West  Level Estimated
Fri 06:06:00 AM 2.5771 -71.2988 309° West  Level Estimated
Fri 06:07:00 AM 2.6466 -71.3840 309° West  Level Estimated
Fri 06:08:00 AM 2.7162 -71.4692 309° West  Level Estimated
Fri 06:09:00 AM 2.7858 -71.5544 309° West  Level Estimated
Fri 06:10:00 AM 2.8553 -71.6397 309° West  Level Estimated
Fri 06:11:00 AM 2.9249 -71.7249 309° West  Level Estimated
Fri 06:12:00 AM 2.9944 -71.8101 309° West  Level Estimated
Fri 06:13:00 AM 3.0640 -71.8954 309° West  Level Estimated
Fri 06:14:00 AM 3.1335 -71.9807 309° West  Level Estimated
Fri 06:15:00 AM 3.2030 -72.0659 309° West  Level Estimated
Fri 06:16:00 AM 3.2726 -72.1512 309° West  Level Estimated
Fri 06:17:00 AM 3.3421 -72.2365 309° West  Level Estimated
Fri 06:18:00 AM 3.4116 -72.3218 309° West  Level Estimated
Fri 06:19:00 AM 3.4811 -72.4072 309° West  Level Estimated
Fri 06:20:00 AM 3.5506 -72.4925 309° West  Level Estimated
Fri 06:21:00 AM 3.6200 -72.5778 309° West  Level Estimated
Fri 06:22:00 AM 3.6895 -72.6632 309° West  Level Estimated
Fri 06:23:00 AM 3.7590 -72.7486 309° West  Level Estimated
Fri 06:24:00 AM 3.8284 -72.8340 309° West  Level Estimated
Fri 06:25:00 AM 3.8979 -72.9194 309° West  Level Estimated
Fri 06:26:00 AM 3.9673 -73.0048 309° West  Level Estimated
Fri 06:27:00 AM 4.0367 -73.0902 309° West  Level Estimated
Fri 06:28:00 AM 4.1062 -73.1757 309° West  Level Estimated
Fri 06:29:00 AM 4.1756 -73.2611 309° West  Level Estimated
Fri 06:30:00 AM 4.2450 -73.3466 309° West  Level Estimated
Fri 06:31:00 AM 4.3144 -73.4321 309° West  Level Estimated
Fri 06:32:00 AM 4.3837 -73.5176 309° West  Level Estimated
Fri 06:33:00 AM 4.4531 -73.6031 309° West  Level Estimated
Fri 06:34:00 AM 4.5225 -73.6887 309° West  Level Estimated
Fri 06:35:00 AM 4.5918 -73.7742 309° West  Level Estimated
Fri 06:36:00 AM 4.6612 -73.8598 309° West  Level Estimated
Fri 06:37:00 AM 4.7305 -73.9454 309° West  Level Estimated
Fri 06:38:00 AM 4.7998 -74.0310 309° West  Level Estimated
Fri 06:39:00 AM 4.8691 -74.1166 309° West  Level Estimated
Fri 06:40:00 AM 4.9384 -74.2023 309° West  Level Estimated
Fri 06:41:00 AM 5.0077 -74.2879 309° West  Level Estimated
Fri 06:42:00 AM 5.0770 -74.3736 309° West  Level Estimated
Fri 06:43:00 AM 5.1463 -74.4593 309° West  Level Estimated
Fri 06:44:00 AM 5.2155 -74.5450 309° West  Level Estimated
Fri 06:45:00 AM 5.2848 -74.6307 309° West  Level Estimated
Fri 06:46:00 AM 5.3540 -74.7165 309° West  Level Estimated
Fri 06:47:00 AM 5.4232 -74.8023 309° West  Level Estimated
Fri 06:48:00 AM 5.4924 -74.8880 309° West  Level Estimated
Fri 06:49:00 AM 5.5616 -74.9739 309° West  Level Estimated
Fri 06:50:00 AM 5.6308 -75.0597 309° West  Level Estimated
Fri 06:51:00 AM 5.7000 -75.1455 309° West  Level Estimated
Fri 06:52:00 AM 5.7692 -75.2314 309° West  Level Estimated
Fri 06:53:00 AM 5.8383 -75.3173 309° West  Level Estimated
Fri 06:54:00 AM 5.9074 -75.4032 309° West  Level Estimated
Fri 06:55:00 AM 5.9766 -75.4892 309° West  Level Estimated
Fri 06:56:00 AM 6.0457 -75.5751 309° West  Level Estimated
Fri 06:57:00 AM 6.1148 -75.6611 309° West  Level Estimated
Fri 06:58:00 AM 6.1838 -75.7471 309° West  Level Estimated
Fri 06:59:00 AM 6.2529 -75.8331 309° West  Level Estimated
Fri 07:00:00 AM 6.3220 -75.9192 309° West  Level Estimated
Fri 07:01:00 AM 6.3910 -76.0052 309° West  Level Estimated
Fri 07:02:00 AM 6.4600 -76.0913 309° West  Level Estimated
Fri 07:03:00 AM 6.5290 -76.1775 309° West  Level Estimated
Fri 07:04:00 AM 6.5980 -76.2636 309° West  Level Estimated
Fri 07:05:00 AM 6.6670 -76.3498 309° West  Level Estimated
Fri 07:06:00 AM 6.7360 -76.4360 309° West  Level Estimated
Fri 07:07:00 AM 6.8049 -76.5222 309° West  Level Estimated
Fri 07:08:00 AM 6.8739 -76.6084 309° West  Level Estimated
Fri 07:09:00 AM 6.9428 -76.6947 309° West  Level Estimated
Fri 07:10:00 AM 7.0117 -76.7810 309° West  Level Estimated
Fri 07:11:00 AM 7.0806 -76.8673 309° West  Level Estimated
Fri 07:12:00 AM 7.1494 -76.9536 309° West  Level Estimated
Fri 07:12:52 AM 9.0080 -79.4150 309° West 156 180 1,100  Level FlightAware ADS-B
Fri 07:13:00 AM 7.2183 -77.0400 309° West  Level Estimated
Fri 07:13:17 AM 9.0250 -79.4060 28° Northeast 155 178 700  Level FlightAware ADS-B
Fri 07:13:47 AM 9.0440 -79.3950 30° Northeast 154 177 200 -900 Descending FlightAware ADS-B
Fri 07:13:57 AM 9.0500 -79.3910 33° Northeast 153 176 100 -600 Descending FlightAware ADS-B

Login

Don't have an account? Register now (free) for customized features, flight alerts, and more!